createdAt,value
2017-02-15T00:00:23.506Z,99.99
2017-02-15T00:01:36.656Z,99.99
2017-02-15T00:02:49.732Z,99.99
2017-02-15T00:04:02.857Z,99.99
2017-02-15T00:05:15.227Z,99.99
2017-02-15T00:06:28.374Z,99.99
2017-02-15T00:07:41.499Z,99.99
2017-02-15T00:08:54.583Z,99.99
2017-02-15T00:10:07.680Z,99.99
2017-02-15T00:11:20.437Z,99.99
2017-02-15T00:12:33.547Z,99.99
2017-02-15T00:13:46.665Z,99.99
2017-02-15T00:14:59.793Z,99.99
2017-02-15T00:16:12.513Z,99.99
2017-02-15T00:17:25.588Z,99.99
2017-02-15T00:18:38.725Z,99.99
2017-02-15T00:19:51.853Z,99.99
2017-02-15T00:21:04.999Z,99.99
2017-02-15T00:22:17.738Z,99.99
2017-02-15T00:23:30.858Z,99.99
2017-02-15T00:24:43.903Z,99.99
2017-02-15T00:25:57.008Z,99.99
2017-02-15T00:27:10.146Z,99.99
2017-02-15T00:28:22.843Z,99.99
2017-02-15T00:29:35.945Z,99.99
2017-02-15T00:30:49.092Z,99.99
2017-02-15T00:32:02.189Z,99.99
2017-02-15T00:33:15.282Z,99.99
2017-02-15T00:34:28.381Z,99.99
2017-02-15T00:35:41.475Z,99.99
2017-02-15T00:36:54.220Z,99.99
2017-02-15T00:38:06.953Z,99.99
2017-02-15T00:39:20.081Z,99.99
2017-02-15T00:40:33.008Z,99.99
2017-02-15T00:41:46.123Z,99.99
2017-02-15T00:42:59.170Z,99.99
2017-02-15T00:44:12.294Z,99.99
2017-02-15T00:45:25.035Z,99.99
2017-02-15T00:46:38.112Z,99.99
2017-02-15T00:47:51.207Z,99.99
2017-02-15T00:49:04.380Z,99.99
2017-02-15T00:50:17.503Z,99.99
2017-02-15T00:51:30.225Z,99.99
2017-02-15T00:52:43.335Z,99.99
2017-02-15T00:53:56.422Z,99.99
2017-02-15T00:55:09.511Z,99.99
2017-02-15T00:56:22.565Z,99.99
2017-02-15T00:57:35.649Z,99.99
2017-02-15T00:58:48.758Z,99.99
2017-02-15T01:00:01.843Z,99.99
2017-02-15T01:01:14.937Z,99.99
2017-02-15T01:02:27.601Z,99.99
2017-02-15T01:03:40.698Z,99.99
2017-02-15T01:04:53.755Z,99.99
2017-02-15T01:06:06.891Z,99.99
2017-02-15T01:07:19.945Z,99.99
2017-02-15T01:08:32.688Z,99.99
2017-02-15T01:09:45.753Z,99.99
2017-02-15T01:10:58.778Z,99.99
2017-02-15T01:12:11.926Z,99.99
2017-02-15T01:13:24.989Z,99.99
2017-02-15T01:14:38.083Z,99.99
2017-02-15T01:15:51.188Z,99.99
2017-02-15T01:17:04.279Z,99.99
2017-02-15T01:18:17.355Z,99.99
2017-02-15T01:19:30.119Z,99.99
2017-02-15T01:20:43.241Z,99.99
2017-02-15T01:21:56.335Z,99.99
2017-02-15T01:23:09.431Z,99.99
2017-02-15T01:24:22.531Z,99.99
2017-02-15T01:25:35.665Z,99.99
2017-02-15T01:26:48.842Z,99.99
2017-02-15T01:28:01.964Z,99.99
2017-02-15T01:29:14.693Z,99.99
2017-02-15T01:30:27.432Z,99.99
2017-02-15T01:31:40.153Z,99.99
2017-02-15T01:32:53.306Z,99.99
2017-02-15T01:34:06.402Z,99.99
2017-02-15T01:35:19.472Z,99.99
2017-02-15T01:36:32.138Z,99.99
2017-02-15T01:37:45.274Z,99.99
2017-02-15T01:38:58.403Z,99.99
2017-02-15T01:40:11.547Z,99.99
2017-02-15T01:41:24.294Z,99.99
2017-02-15T01:42:37.400Z,99.99
2017-02-15T01:43:50.487Z,99.99
2017-02-15T01:45:03.832Z,99.99
2017-02-15T01:46:16.925Z,99.99
2017-02-15T01:47:30.051Z,99.99
2017-02-15T01:48:43.151Z,99.99
2017-02-15T01:49:56.243Z,99.99
2017-02-15T01:51:09.000Z,99.99
2017-02-15T01:52:22.158Z,99.99
2017-02-15T01:53:35.284Z,99.99
2017-02-15T01:54:48.424Z,99.99
2017-02-15T01:56:01.526Z,99.99
2017-02-15T01:57:14.266Z,99.99
2017-02-15T01:58:27.338Z,99.99
2017-02-15T01:59:40.407Z,99.99
2017-02-15T02:00:53.553Z,99.99
2017-02-15T02:02:06.692Z,99.99
2017-02-15T02:03:19.778Z,99.99
2017-02-15T02:04:32.866Z,99.99
2017-02-15T02:05:45.969Z,99.99
2017-02-15T02:06:59.035Z,99.99
2017-02-15T02:08:12.129Z,99.99
2017-02-15T02:09:25.230Z,99.99
2017-02-15T02:10:38.301Z,99.99
2017-02-15T02:11:51.672Z,99.99
2017-02-15T02:13:04.780Z,99.99
2017-02-15T02:14:17.857Z,99.99
2017-02-15T02:15:30.559Z,99.99
2017-02-15T02:16:43.681Z,99.99
2017-02-15T02:17:56.795Z,99.99
2017-02-15T02:19:09.514Z,99.99
2017-02-15T02:20:22.637Z,99.99
2017-02-15T02:21:34.931Z,99.99
2017-02-15T02:22:48.070Z,99.99
2017-02-15T02:24:01.124Z,99.99
2017-02-15T02:25:14.226Z,99.99
2017-02-15T02:26:27.324Z,99.99
2017-02-15T02:27:40.016Z,99.99
2017-02-15T02:28:53.130Z,99.99
2017-02-15T02:30:06.259Z,99.99
2017-02-15T02:31:18.999Z,99.99
2017-02-15T02:32:31.743Z,99.99
2017-02-15T02:33:44.805Z,99.99
2017-02-15T02:34:57.923Z,99.99
2017-02-15T02:36:10.658Z,99.99
2017-02-15T02:37:23.377Z,99.99
2017-02-15T02:38:35.684Z,99.99
2017-02-15T02:39:48.795Z,99.99
2017-02-15T02:41:01.516Z,99.99
2017-02-15T02:42:14.218Z,99.99
2017-02-15T02:43:27.319Z,99.99
2017-02-15T02:44:40.470Z,99.99
2017-02-15T02:45:53.606Z,99.99
2017-02-15T02:47:06.712Z,99.99
2017-02-15T02:48:19.790Z,99.99
2017-02-15T02:49:32.918Z,99.99
2017-02-15T02:50:46.014Z,99.99
2017-02-15T02:51:59.146Z,99.99
2017-02-15T02:53:12.223Z,99.99
2017-02-15T02:54:24.927Z,99.99
2017-02-15T02:55:38.017Z,99.99
2017-02-15T02:56:51.095Z,99.99
2017-02-15T02:58:04.184Z,99.99
2017-02-15T02:59:17.303Z,99.99
2017-02-15T03:00:30.377Z,99.99
2017-02-15T03:01:43.445Z,99.99
2017-02-15T03:02:56.542Z,99.99
2017-02-15T03:04:09.635Z,99.99
2017-02-15T03:05:22.781Z,99.99
2017-02-15T03:06:35.866Z,99.99
2017-02-15T03:07:48.603Z,99.99
2017-02-15T03:09:01.653Z,99.99
2017-02-15T03:10:14.825Z,99.99
2017-02-15T03:11:27.944Z,99.99
2017-02-15T03:12:41.067Z,99.99
2017-02-15T03:13:54.160Z,99.99
2017-02-15T03:15:07.307Z,99.99
2017-02-15T03:16:20.413Z,99.99
2017-02-15T03:17:33.573Z,99.99
2017-02-15T03:18:46.663Z,99.99
2017-02-15T03:19:59.740Z,99.99
2017-02-15T03:21:12.430Z,99.99
2017-02-15T03:22:25.357Z,99.99
2017-02-15T03:23:37.680Z,99.99
2017-02-15T03:24:50.776Z,99.99
2017-02-15T03:26:03.895Z,99.99
2017-02-15T03:27:16.984Z,99.99
2017-02-15T03:28:30.080Z,99.99
2017-02-15T03:29:43.126Z,99.99
2017-02-15T03:30:56.188Z,99.99
2017-02-15T03:32:09.243Z,99.99
2017-02-15T03:33:21.990Z,99.99
2017-02-15T03:34:34.757Z,99.99
2017-02-15T03:35:47.830Z,99.99
2017-02-15T03:37:00.885Z,99.99
2017-02-15T03:38:14.003Z,99.99
2017-02-15T03:39:27.100Z,99.99
2017-02-15T03:40:40.181Z,99.99
2017-02-15T03:41:53.302Z,99.99
2017-02-15T03:43:06.414Z,99.99
2017-02-15T03:44:19.151Z,99.99
2017-02-15T03:45:31.865Z,99.99
2017-02-15T03:46:45.024Z,99.99
2017-02-15T03:47:58.125Z,99.99
2017-02-15T03:49:10.860Z,99.99
2017-02-15T03:50:23.964Z,99.99
2017-02-15T03:51:36.659Z,99.99
2017-02-15T03:52:49.754Z,99.99
2017-02-15T03:54:02.862Z,99.99
2017-02-15T03:55:14.789Z,99.99
2017-02-15T03:56:27.945Z,99.99
2017-02-15T03:57:41.056Z,99.99
2017-02-15T03:58:54.105Z,99.99
2017-02-15T04:00:07.154Z,99.99
2017-02-15T04:01:19.868Z,99.99
2017-02-15T04:02:33.015Z,99.99
2017-02-15T04:03:46.138Z,99.99
2017-02-15T04:04:58.906Z,99.99
2017-02-15T04:06:11.609Z,99.99
2017-02-15T04:07:24.749Z,99.99
2017-02-15T04:08:37.850Z,99.99
2017-02-15T04:09:50.564Z,99.99
2017-02-15T04:11:03.661Z,99.99
2017-02-15T04:12:16.763Z,99.99
2017-02-15T04:13:29.889Z,99.99
2017-02-15T04:14:42.628Z,99.99
2017-02-15T04:15:55.973Z,99.99
2017-02-15T04:17:09.047Z,99.99
2017-02-15T04:18:22.161Z,99.99
2017-02-15T04:19:34.808Z,99.99
2017-02-15T04:20:47.902Z,99.99
2017-02-15T04:22:00.992Z,99.99
2017-02-15T04:23:14.080Z,99.99
2017-02-15T04:24:27.184Z,99.99
2017-02-15T04:25:40.286Z,99.99
2017-02-15T04:26:53.444Z,99.99
2017-02-15T04:28:06.154Z,99.99
2017-02-15T04:29:18.882Z,99.99
2017-02-15T04:30:31.628Z,99.99
2017-02-15T04:31:43.941Z,99.99
2017-02-15T04:32:57.037Z,99.99
2017-02-15T04:34:09.710Z,99.99
2017-02-15T04:35:22.806Z,99.99
2017-02-15T04:36:35.875Z,99.99
2017-02-15T04:37:48.996Z,99.99
2017-02-15T04:39:02.126Z,99.99
2017-02-15T04:40:14.862Z,99.99
2017-02-15T04:41:27.967Z,99.99
2017-02-15T04:42:41.072Z,99.99
2017-02-15T04:43:54.182Z,99.99
2017-02-15T04:45:07.270Z,99.99
2017-02-15T04:46:19.968Z,99.99
2017-02-15T04:47:33.047Z,99.99
2017-02-15T04:48:46.166Z,99.99
2017-02-15T04:49:59.287Z,99.99
2017-02-15T04:51:12.400Z,99.99
2017-02-15T04:52:25.092Z,99.99
2017-02-15T04:53:38.193Z,99.99
2017-02-15T04:54:51.269Z,99.99
2017-02-15T04:56:04.408Z,99.99
2017-02-15T04:57:17.538Z,99.99
2017-02-15T04:58:30.277Z,99.99
2017-02-15T04:59:43.598Z,99.99
2017-02-15T05:00:56.750Z,99.99
2017-02-15T05:02:09.820Z,99.99
2017-02-15T05:03:22.933Z,99.99
2017-02-15T05:04:36.047Z,99.99
2017-02-15T05:05:49.119Z,99.99
2017-02-15T05:07:02.229Z,99.99
2017-02-15T05:08:14.970Z,99.99
2017-02-15T05:09:28.097Z,99.99
2017-02-15T05:10:41.217Z,99.99
2017-02-15T05:11:54.313Z,99.99
2017-02-15T05:13:07.377Z,99.99
2017-02-15T05:14:20.054Z,99.99
2017-02-15T05:15:32.778Z,99.99
2017-02-15T05:16:45.871Z,99.99
2017-02-15T05:17:58.968Z,99.99
2017-02-15T05:19:11.708Z,99.99
2017-02-15T05:20:24.778Z,99.99
2017-02-15T05:21:37.131Z,99.99
2017-02-15T05:22:50.244Z,99.99
2017-02-15T05:24:03.371Z,99.99
2017-02-15T05:25:16.469Z,99.99
2017-02-15T05:26:29.219Z,99.99
2017-02-15T05:27:42.334Z,99.99
2017-02-15T05:28:55.405Z,99.99
2017-02-15T05:30:08.170Z,99.99
2017-02-15T05:31:21.196Z,99.99
2017-02-15T05:32:34.313Z,99.99
2017-02-15T05:33:47.050Z,99.99
2017-02-15T05:35:00.152Z,99.99
2017-02-15T05:36:13.248Z,99.99
2017-02-15T05:37:26.601Z,99.99
2017-02-15T05:38:39.708Z,99.99
2017-02-15T05:39:52.461Z,99.99
2017-02-15T05:41:05.565Z,99.99
2017-02-15T05:42:18.260Z,99.99
2017-02-15T05:43:31.348Z,99.99
2017-02-15T05:44:44.395Z,99.99
2017-02-15T05:45:57.510Z,99.99
2017-02-15T05:47:09.836Z,99.99
2017-02-15T05:48:22.915Z,99.99
2017-02-15T05:49:35.985Z,99.99
2017-02-15T05:50:49.081Z,99.99
2017-02-15T05:52:02.172Z,99.99
2017-02-15T05:53:14.874Z,99.99
2017-02-15T05:54:27.986Z,99.99
2017-02-15T05:55:40.647Z,99.99
2017-02-15T05:56:53.402Z,99.99
2017-02-15T05:58:06.124Z,99.99
2017-02-15T05:59:19.101Z,99.99
2017-02-15T06:00:32.209Z,99.99
2017-02-15T06:01:44.904Z,99.99
2017-02-15T06:02:58.015Z,99.99
2017-02-15T06:04:10.737Z,99.99
2017-02-15T06:05:23.467Z,99.99
2017-02-15T06:06:36.596Z,99.99
2017-02-15T06:07:49.697Z,99.99
2017-02-15T06:09:02.787Z,99.99
2017-02-15T06:10:15.910Z,99.99
2017-02-15T06:11:28.987Z,99.99
2017-02-15T06:12:41.693Z,99.99
2017-02-15T06:13:54.396Z,99.99
2017-02-15T06:15:07.492Z,99.99
2017-02-15T06:16:20.630Z,99.99
2017-02-15T06:17:33.286Z,99.99
2017-02-15T06:18:46.353Z,99.99
2017-02-15T06:19:59.077Z,99.99
2017-02-15T06:21:11.853Z,99.99
2017-02-15T06:22:24.942Z,99.99
2017-02-15T06:23:38.031Z,99.99
2017-02-15T06:24:51.158Z,99.99
2017-02-15T06:26:04.231Z,99.99
2017-02-15T06:27:17.577Z,99.99
2017-02-15T06:28:30.656Z,99.99
2017-02-15T06:29:43.742Z,99.99
2017-02-15T06:30:56.415Z,99.99
2017-02-15T06:32:09.516Z,99.99
2017-02-15T06:33:22.611Z,99.99
2017-02-15T06:34:35.774Z,99.99
2017-02-15T06:35:48.503Z,99.99
2017-02-15T06:37:01.593Z,99.99
2017-02-15T06:38:14.639Z,99.99
2017-02-15T06:39:27.691Z,99.99
2017-02-15T06:40:40.842Z,99.99
2017-02-15T06:41:53.969Z,99.99
2017-02-15T06:43:07.054Z,99.99
2017-02-15T06:44:20.145Z,99.99
2017-02-15T06:45:33.214Z,99.99
2017-02-15T06:46:46.353Z,99.99
2017-02-15T06:47:59.430Z,99.99
2017-02-15T06:49:12.525Z,99.99
2017-02-15T06:50:25.223Z,99.99
2017-02-15T06:51:38.295Z,99.99
2017-02-15T06:52:51.397Z,99.99
2017-02-15T06:54:04.520Z,99.99
2017-02-15T06:55:17.212Z,99.99
2017-02-15T06:56:30.308Z,99.99
2017-02-15T06:57:43.398Z,99.99
2017-02-15T06:58:56.501Z,99.99
2017-02-15T07:00:09.596Z,99.99
2017-02-15T07:01:22.728Z,99.99
2017-02-15T07:02:35.866Z,99.99
2017-02-15T07:03:48.987Z,99.99
2017-02-15T07:05:02.074Z,99.99
2017-02-15T07:06:14.369Z,99.99
2017-02-15T07:07:27.457Z,99.99
2017-02-15T07:08:40.136Z,99.99
2017-02-15T07:09:53.240Z,99.99
2017-02-15T07:11:05.979Z,99.99
2017-02-15T07:12:19.046Z,99.99
2017-02-15T07:13:32.176Z,99.99
2017-02-15T07:14:45.271Z,99.99
2017-02-15T07:15:57.962Z,99.99
2017-02-15T07:17:11.088Z,99.99
2017-02-15T07:18:24.228Z,99.99
2017-02-15T07:19:37.274Z,99.99
2017-02-15T07:20:50.623Z,99.99
2017-02-15T07:22:03.739Z,99.99
2017-02-15T07:23:16.092Z,99.99
2017-02-15T07:24:28.782Z,99.99
2017-02-15T07:25:41.514Z,99.99
2017-02-15T07:26:54.602Z,99.99
2017-02-15T07:28:07.703Z,99.99
2017-02-15T07:29:20.822Z,99.99
2017-02-15T07:30:33.950Z,99.99
2017-02-15T07:31:47.064Z,99.99
2017-02-15T07:32:59.810Z,99.99
2017-02-15T07:34:12.953Z,99.99
2017-02-15T07:35:26.063Z,99.99
2017-02-15T07:36:39.147Z,99.99
2017-02-15T07:37:51.838Z,99.99
2017-02-15T07:39:04.876Z,99.99
2017-02-15T07:40:17.589Z,99.99
2017-02-15T07:41:30.956Z,99.99
2017-02-15T07:42:44.094Z,99.99
2017-02-15T07:43:57.191Z,99.99
2017-02-15T07:45:10.244Z,99.99
2017-02-15T07:46:23.332Z,99.99
2017-02-15T07:47:36.447Z,99.99
2017-02-15T07:48:49.526Z,99.99
2017-02-15T07:50:02.598Z,99.99
2017-02-15T07:51:15.674Z,99.99
2017-02-15T07:52:28.830Z,99.99
2017-02-15T07:53:41.924Z,99.99
2017-02-15T07:54:55.085Z,99.99
2017-02-15T07:56:08.217Z,99.99
2017-02-15T07:57:21.287Z,99.99
2017-02-15T07:58:34.366Z,99.99
2017-02-15T07:59:47.486Z,99.99
2017-02-15T08:01:00.575Z,99.99
2017-02-15T08:02:13.302Z,99.99
2017-02-15T08:03:26.278Z,99.99
2017-02-15T08:04:39.345Z,99.99
2017-02-15T08:05:52.433Z,99.99
2017-02-15T08:07:05.518Z,99.99
2017-02-15T08:08:18.241Z,99.99
2017-02-15T08:09:31.360Z,99.99
2017-02-15T08:10:44.426Z,99.99
2017-02-15T08:11:57.521Z,99.99
2017-02-15T08:13:10.641Z,99.99
2017-02-15T08:14:23.763Z,99.99
2017-02-15T08:15:36.858Z,99.99
2017-02-15T08:16:49.560Z,99.99
2017-02-15T08:18:02.625Z,99.99
2017-02-15T08:19:15.695Z,99.99
2017-02-15T08:20:28.768Z,99.99
2017-02-15T08:21:41.869Z,99.99
2017-02-15T08:22:55.017Z,99.99
2017-02-15T08:24:07.761Z,99.99
2017-02-15T08:25:20.882Z,99.99
2017-02-15T08:26:33.997Z,99.99
2017-02-15T08:27:46.741Z,99.99
2017-02-15T08:28:59.819Z,99.99
2017-02-15T08:30:12.912Z,99.99
2017-02-15T08:31:26.059Z,99.99
2017-02-15T08:32:38.824Z,99.99
2017-02-15T08:33:51.999Z,99.99
2017-02-15T08:35:05.092Z,99.99
2017-02-15T08:36:17.438Z,99.99
2017-02-15T08:37:30.533Z,99.99
2017-02-15T08:38:43.635Z,99.99
2017-02-15T08:39:56.735Z,99.99
2017-02-15T08:41:09.853Z,99.99
2017-02-15T08:42:22.990Z,99.99
2017-02-15T08:43:35.763Z,99.99
2017-02-15T08:44:48.834Z,99.99
2017-02-15T08:46:01.571Z,99.99
2017-02-15T08:47:14.282Z,99.99
2017-02-15T08:48:27.004Z,99.99
2017-02-15T08:49:40.067Z,99.99
2017-02-15T08:50:53.170Z,99.99
2017-02-15T08:52:06.311Z,99.99
2017-02-15T08:53:19.453Z,99.99
2017-02-15T08:54:32.147Z,99.99
2017-02-15T08:55:45.251Z,99.99
2017-02-15T08:56:57.966Z,99.99
2017-02-15T08:58:10.680Z,99.99
2017-02-15T08:59:23.425Z,99.99
2017-02-15T09:00:36.511Z,99.99
2017-02-15T09:01:49.643Z,99.99
2017-02-15T09:03:02.747Z,99.99
2017-02-15T09:04:15.467Z,99.99
2017-02-15T09:05:28.555Z,99.99
2017-02-15T09:06:41.665Z,99.99
2017-02-15T09:07:54.755Z,99.99
2017-02-15T09:09:07.842Z,99.85
2017-02-15T09:10:20.556Z,99.57
2017-02-15T09:11:33.690Z,99.85
2017-02-15T09:12:46.838Z,99.76
2017-02-15T09:13:59.915Z,99.85
2017-02-15T09:15:13.011Z,99.85
2017-02-15T09:16:25.782Z,99.19
2017-02-15T09:17:38.894Z,99.43
2017-02-15T09:18:52.001Z,98.67
2017-02-15T09:20:05.094Z,98.67
2017-02-15T09:21:18.214Z,98.39
2017-02-15T09:22:31.289Z,98.58
2017-02-15T09:23:44.431Z,98.77
2017-02-15T09:24:57.547Z,98.77
2017-02-15T09:26:10.268Z,97.82
2017-02-15T09:27:22.964Z,97.06
2017-02-15T09:28:36.017Z,97.06
2017-02-15T09:29:48.707Z,97.25
2017-02-15T09:31:01.843Z,96.88
2017-02-15T09:32:14.539Z,97.25
2017-02-15T09:33:27.647Z,97.16
2017-02-15T09:34:40.764Z,97.06
2017-02-15T09:35:53.909Z,96.5
2017-02-15T09:37:07.037Z,95.5
2017-02-15T09:38:20.182Z,95.21
2017-02-15T09:39:33.278Z,95.03
2017-02-15T09:40:46.424Z,94.46
2017-02-15T09:41:59.595Z,94.18
2017-02-15T09:43:12.689Z,94.08
2017-02-15T09:44:25.405Z,93.23
2017-02-15T09:45:38.508Z,93.04
2017-02-15T09:46:51.280Z,92.85
2017-02-15T09:48:04.368Z,92.66
2017-02-15T09:49:17.117Z,91.95
2017-02-15T09:50:29.834Z,92
2017-02-15T09:51:42.937Z,91.95
2017-02-15T09:52:56.029Z,91.95
2017-02-15T09:54:09.153Z,91.76
2017-02-15T09:55:21.899Z,90.91
2017-02-15T09:56:35.013Z,91.1
2017-02-15T09:57:48.009Z,90.72
2017-02-15T09:59:01.089Z,91
2017-02-15T10:00:13.858Z,89.39
2017-02-15T10:01:26.953Z,89.11
2017-02-15T10:02:39.693Z,88.73
2017-02-15T10:03:52.815Z,88.73
2017-02-15T10:05:05.501Z,89.25
2017-02-15T10:06:18.603Z,89.15
2017-02-15T10:07:31.749Z,88.49
2017-02-15T10:08:44.856Z,88.78
2017-02-15T10:09:57.978Z,88.3
2017-02-15T10:11:10.670Z,88.02
2017-02-15T10:12:23.765Z,88.02
2017-02-15T10:13:36.855Z,88.02
2017-02-15T10:14:49.976Z,87.64
2017-02-15T10:16:03.053Z,87.16
2017-02-15T10:17:16.224Z,86.98
2017-02-15T10:18:28.939Z,86.6
2017-02-15T10:19:42.062Z,86.69
2017-02-15T10:20:55.147Z,86.64
2017-02-15T10:22:08.276Z,85.78
2017-02-15T10:23:21.021Z,86.16
2017-02-15T10:24:34.149Z,86.35
2017-02-15T10:25:47.239Z,86.45
2017-02-15T10:27:00.342Z,86.83
2017-02-15T10:28:13.037Z,86.55
2017-02-15T10:29:26.157Z,86.55
2017-02-15T10:30:39.249Z,86.07
2017-02-15T10:31:52.416Z,85.5
2017-02-15T10:33:05.165Z,85.03
2017-02-15T10:34:17.868Z,84.65
2017-02-15T10:35:31.054Z,85.03
2017-02-15T10:36:44.127Z,84.65
2017-02-15T10:37:57.223Z,84.94
2017-02-15T10:39:09.937Z,84.74
2017-02-15T10:40:23.041Z,84.03
2017-02-15T10:41:36.142Z,83.74
2017-02-15T10:42:49.279Z,83.55
2017-02-15T10:44:02.385Z,83.55
2017-02-15T10:45:15.105Z,82.89
2017-02-15T10:46:28.238Z,82.13
2017-02-15T10:47:40.571Z,81.27
2017-02-15T10:48:53.687Z,81.27
2017-02-15T10:50:06.767Z,81.85
2017-02-15T10:51:19.535Z,81.37
2017-02-15T10:52:32.266Z,81.37
2017-02-15T10:53:45.019Z,80.43
2017-02-15T10:54:58.152Z,80.52
2017-02-15T10:56:10.518Z,79.99
2017-02-15T10:57:23.233Z,79.9
2017-02-15T10:58:36.338Z,79.04
2017-02-15T10:59:49.447Z,79.52
2017-02-15T11:01:02.571Z,79.14
2017-02-15T11:02:15.723Z,78.75
2017-02-15T11:03:28.093Z,78.75
2017-02-15T11:04:40.434Z,78.28
2017-02-15T11:05:53.604Z,78.28
2017-02-15T11:07:06.732Z,78.19
2017-02-15T11:08:19.824Z,77.43
2017-02-15T11:09:32.941Z,78
2017-02-15T11:10:46.069Z,78.28
2017-02-15T11:11:59.233Z,77.62
2017-02-15T11:13:11.928Z,76.95
2017-02-15T11:14:25.057Z,77.05
2017-02-15T11:15:37.788Z,77.52
2017-02-15T11:16:50.899Z,77.43
2017-02-15T11:18:04.031Z,77.14
2017-02-15T11:19:17.159Z,77.71
2017-02-15T11:20:30.312Z,76.95
2017-02-15T11:21:43.458Z,76.67
2017-02-15T11:22:56.596Z,76.32
2017-02-15T11:24:09.747Z,75.09
2017-02-15T11:25:22.494Z,75.19
2017-02-15T11:26:35.629Z,74.43
2017-02-15T11:27:48.312Z,74.43
2017-02-15T11:29:01.426Z,74.71
2017-02-15T11:30:14.478Z,74.05
2017-02-15T11:31:27.274Z,74.05
2017-02-15T11:32:40.388Z,74.15
2017-02-15T11:33:53.466Z,74.24
2017-02-15T11:35:05.837Z,73.38
2017-02-15T11:36:19.000Z,72.63
2017-02-15T11:37:32.133Z,73.29
2017-02-15T11:38:45.225Z,72.91
2017-02-15T11:39:57.571Z,72.72
2017-02-15T11:41:10.260Z,72.53
2017-02-15T11:42:23.355Z,72.91
2017-02-15T11:43:36.494Z,72.81
2017-02-15T11:44:49.623Z,73.38
2017-02-15T11:46:02.760Z,73.42
2017-02-15T11:47:15.096Z,73.57
2017-02-15T11:48:27.830Z,72.66
2017-02-15T11:49:40.927Z,72.38
2017-02-15T11:50:54.036Z,72.09
2017-02-15T11:52:07.197Z,71.71
2017-02-15T11:53:19.526Z,71.04
2017-02-15T11:54:32.666Z,71.62
2017-02-15T11:55:45.836Z,71.71
2017-02-15T11:56:58.914Z,71.43
2017-02-15T11:58:11.995Z,71.81
2017-02-15T11:59:24.343Z,71.43
2017-02-15T12:00:37.125Z,71.23
2017-02-15T12:01:49.898Z,71.62
2017-02-15T12:03:02.998Z,71.43
2017-02-15T12:04:16.138Z,71.33
2017-02-15T12:05:28.859Z,71.43
2017-02-15T12:06:41.599Z,70.86
2017-02-15T12:07:54.720Z,70
2017-02-15T12:09:07.081Z,69.91
2017-02-15T12:10:20.218Z,70.1
2017-02-15T12:11:33.340Z,70
2017-02-15T12:12:46.435Z,70.19
2017-02-15T12:13:59.525Z,70.32
2017-02-15T12:15:12.278Z,70.04
2017-02-15T12:16:25.400Z,70.04
2017-02-15T12:17:38.519Z,70.23
2017-02-15T12:18:51.667Z,69.46
2017-02-15T12:20:04.805Z,69.18
2017-02-15T12:21:17.899Z,69.09
2017-02-15T12:22:31.053Z,69.37
2017-02-15T12:23:44.216Z,69.09
2017-02-15T12:24:57.338Z,69.09
2017-02-15T12:26:10.040Z,68.71
2017-02-15T12:27:23.140Z,68.52
2017-02-15T12:28:36.208Z,68.52
2017-02-15T12:29:49.352Z,68.61
2017-02-15T12:31:02.507Z,67.57
2017-02-15T12:32:14.869Z,67.38
2017-02-15T12:33:27.965Z,67.47
2017-02-15T12:34:41.114Z,67.38
2017-02-15T12:35:54.233Z,67.28
2017-02-15T12:37:07.380Z,66.9
2017-02-15T12:38:20.109Z,67
2017-02-15T12:39:33.287Z,67.32
2017-02-15T12:40:46.401Z,66.46
2017-02-15T12:41:59.489Z,65.6
2017-02-15T12:43:12.602Z,64.94
2017-02-15T12:44:25.353Z,64.94
2017-02-15T12:45:38.473Z,65.51
2017-02-15T12:46:51.574Z,65.41
2017-02-15T12:48:04.691Z,65.6
2017-02-15T12:49:17.767Z,65.7
2017-02-15T12:50:30.919Z,65.8
2017-02-15T12:51:44.027Z,66.08
2017-02-15T12:52:56.765Z,65.7
2017-02-15T12:54:09.869Z,65.22
2017-02-15T12:55:23.001Z,64.46
2017-02-15T12:56:36.105Z,63.23
2017-02-15T12:57:49.235Z,63.51
2017-02-15T12:59:02.354Z,63.13
2017-02-15T13:00:15.049Z,62.27
2017-02-15T13:01:28.212Z,62.18
2017-02-15T13:02:41.291Z,61.61
2017-02-15T13:03:54.411Z,62.18
2017-02-15T13:05:07.533Z,62.75
2017-02-15T13:06:20.653Z,63.13
2017-02-15T13:07:33.824Z,63.6
2017-02-15T13:08:46.951Z,63.51
2017-02-15T13:10:00.066Z,64.18
2017-02-15T13:11:12.388Z,64.4
2017-02-15T13:12:25.500Z,64.31
2017-02-15T13:13:38.679Z,63.35
2017-02-15T13:14:51.849Z,63.51
2017-02-15T13:16:04.939Z,63.45
2017-02-15T13:17:18.014Z,63.83
2017-02-15T13:18:30.715Z,64.11
2017-02-15T13:19:43.781Z,63.92
2017-02-15T13:20:56.879Z,63.73
2017-02-15T13:22:09.580Z,64.31
2017-02-15T13:23:22.345Z,64.21
2017-02-15T13:24:35.091Z,64.11
2017-02-15T13:25:47.831Z,64.11
2017-02-15T13:27:00.951Z,63.73
2017-02-15T13:28:13.673Z,64.11
2017-02-15T13:29:26.817Z,63.92
2017-02-15T13:30:39.541Z,63.64
2017-02-15T13:31:52.261Z,63.35
2017-02-15T13:33:05.007Z,62.97
2017-02-15T13:34:18.101Z,62.78
2017-02-15T13:35:31.274Z,62.49
2017-02-15T13:36:44.347Z,62.97
2017-02-15T13:37:57.508Z,63.26
2017-02-15T13:39:10.242Z,64.11
2017-02-15T13:40:23.399Z,64.11
2017-02-15T13:41:36.805Z,64.21
2017-02-15T13:42:49.956Z,63.54
2017-02-15T13:44:03.046Z,62.78
2017-02-15T13:45:15.733Z,62.21
2017-02-15T13:46:28.868Z,61.93
2017-02-15T13:47:41.943Z,62.3
2017-02-15T13:48:55.059Z,61.83
2017-02-15T13:50:08.196Z,61.64
2017-02-15T13:51:20.919Z,61.93
2017-02-15T13:52:34.077Z,62.69
2017-02-15T13:53:47.168Z,62.97
2017-02-15T13:55:00.283Z,62.21
2017-02-15T13:56:12.622Z,62.21
2017-02-15T13:57:25.750Z,63.26
2017-02-15T13:58:38.874Z,62.97
2017-02-15T13:59:52.025Z,62.59
2017-02-15T14:01:05.194Z,63.17
2017-02-15T14:02:17.607Z,61.93
2017-02-15T14:03:30.337Z,62.3
2017-02-15T14:04:43.500Z,62.69
2017-02-15T14:05:56.613Z,62.88
2017-02-15T14:07:09.394Z,63.64
2017-02-15T14:08:22.144Z,63.54
2017-02-15T14:09:35.336Z,63.17
2017-02-15T14:10:48.452Z,63.54
2017-02-15T14:12:01.558Z,64.02
2017-02-15T14:13:14.321Z,64.11
2017-02-15T14:14:27.414Z,64.02
2017-02-15T14:15:39.772Z,63.83
2017-02-15T14:16:52.909Z,63.64
2017-02-15T14:18:06.005Z,63.64
2017-02-15T14:19:19.156Z,63.83
2017-02-15T14:20:32.153Z,63.73
2017-02-15T14:21:45.299Z,63.54
2017-02-15T14:22:58.063Z,63.83
2017-02-15T14:24:10.792Z,64.11
2017-02-15T14:25:23.931Z,64.21
2017-02-15T14:26:37.037Z,63.73
2017-02-15T14:27:50.214Z,63.73
2017-02-15T14:29:03.349Z,63.17
2017-02-15T14:30:15.338Z,63.35
2017-02-15T14:31:28.495Z,63.17
2017-02-15T14:32:41.580Z,62.78
2017-02-15T14:33:54.727Z,62.78
2017-02-15T14:35:07.823Z,62.88
2017-02-15T14:36:20.185Z,62.4
2017-02-15T14:37:33.312Z,62.4
2017-02-15T14:38:46.111Z,62.88
2017-02-15T14:39:59.173Z,62.59
2017-02-15T14:41:12.332Z,63.07
2017-02-15T14:42:25.098Z,63.07
2017-02-15T14:43:37.824Z,63.17
2017-02-15T14:44:50.896Z,63.26
2017-02-15T14:46:03.642Z,62.78
2017-02-15T14:47:16.388Z,62.78
2017-02-15T14:48:29.505Z,63.07
2017-02-15T14:49:42.240Z,62.78
2017-02-15T14:50:55.316Z,63.07
2017-02-15T14:52:08.026Z,63.35
2017-02-15T14:53:21.112Z,63.45
2017-02-15T14:54:34.224Z,63.45
2017-02-15T14:55:47.388Z,63.45
2017-02-15T14:57:00.505Z,63.26
2017-02-15T14:58:13.637Z,63.45
2017-02-15T14:59:26.366Z,63.35
2017-02-15T15:00:39.496Z,63.54
2017-02-15T15:01:52.613Z,63.35
2017-02-15T15:03:05.728Z,63.17
2017-02-15T15:04:18.066Z,63.54
2017-02-15T15:05:30.813Z,63.54
2017-02-15T15:06:43.166Z,63.73
2017-02-15T15:07:55.885Z,64.21
2017-02-15T15:09:08.633Z,64.5
2017-02-15T15:10:21.385Z,64.31
2017-02-15T15:11:34.073Z,64.21
2017-02-15T15:12:47.196Z,63.73
2017-02-15T15:13:59.923Z,64.4
2017-02-15T15:15:13.036Z,64.78
2017-02-15T15:16:26.133Z,64.56
2017-02-15T15:17:39.230Z,65.13
2017-02-15T15:18:52.307Z,65.13
2017-02-15T15:20:05.027Z,65.13
2017-02-15T15:21:18.173Z,64.65
2017-02-15T15:22:31.363Z,64.94
2017-02-15T15:23:44.107Z,64.94
2017-02-15T15:24:57.204Z,65.22
2017-02-15T15:26:09.931Z,65.22
2017-02-15T15:27:23.049Z,65.22
2017-02-15T15:28:36.217Z,65.32
2017-02-15T15:29:48.945Z,65.22
2017-02-15T15:31:02.090Z,65.13
2017-02-15T15:32:15.165Z,65.13
2017-02-15T15:33:28.274Z,65.51
2017-02-15T15:34:41.382Z,65.7
2017-02-15T15:35:54.527Z,65.7
2017-02-15T15:37:07.640Z,65.51
2017-02-15T15:38:20.761Z,65.51
2017-02-15T15:39:33.854Z,65.41
2017-02-15T15:40:47.176Z,65.32
2017-02-15T15:41:59.847Z,65.51